createdAt,value
2023-04-17T00:02:22.391Z,13.00
2023-04-17T00:05:27.888Z,15.07
2023-04-17T00:08:30.988Z,13.90
2023-04-17T00:11:33.642Z,14.60
2023-04-17T00:14:36.269Z,14.37
2023-04-17T00:17:38.957Z,13.80
2023-04-17T00:20:43.032Z,14.40
2023-04-17T00:23:45.871Z,15.20
2023-04-17T00:26:48.484Z,13.80
2023-04-17T00:29:51.198Z,15.03
2023-04-17T00:32:53.955Z,13.83
2023-04-17T00:35:58.020Z,14.70
2023-04-17T00:39:01.199Z,14.37
2023-04-17T00:42:03.952Z,14.50
2023-04-17T00:45:10.822Z,14.63
2023-04-17T00:48:16.146Z,14.60
2023-04-17T00:51:20.194Z,14.60
2023-04-17T00:54:24.017Z,14.73
2023-04-17T00:57:27.716Z,15.20
2023-04-17T01:00:30.381Z,14.23
2023-04-17T01:03:34.102Z,14.60
2023-04-17T01:06:38.224Z,15.53
2023-04-17T01:09:41.026Z,14.93
2023-04-17T01:12:46.683Z,14.87
2023-04-17T01:15:49.563Z,15.23
2023-04-17T01:18:52.300Z,15.10
2023-04-17T01:21:56.340Z,15.50
2023-04-17T01:25:00.403Z,16.27
2023-04-17T01:28:03.062Z,15.03
2023-04-17T01:31:05.987Z,15.30
2023-04-17T01:34:08.677Z,14.90
2023-04-17T01:37:11.382Z,15.70
2023-04-17T01:40:15.535Z,15.93
2023-04-17T01:43:18.227Z,15.63
2023-04-17T01:46:20.928Z,13.90
2023-04-17T01:49:23.655Z,15.13
2023-04-17T01:52:26.451Z,16.27
2023-04-17T01:55:30.492Z,15.47
2023-04-17T01:58:33.234Z,15.53
2023-04-17T02:01:36.823Z,15.80
2023-04-17T02:04:39.665Z,15.23
2023-04-17T02:07:42.638Z,14.63
2023-04-17T02:10:46.682Z,15.40
2023-04-17T02:13:49.318Z,15.40
2023-04-17T02:16:53.700Z,14.53
2023-04-17T02:19:56.469Z,16.00
2023-04-17T02:23:00.359Z,14.90
2023-04-17T02:26:04.723Z,14.57
2023-04-17T02:29:07.345Z,15.53
2023-04-17T02:32:09.989Z,15.20
2023-04-17T02:35:12.904Z,15.90
2023-04-17T02:38:15.613Z,15.80
2023-04-17T02:41:19.591Z,15.50
2023-04-17T02:44:22.247Z,15.77
2023-04-17T02:47:24.879Z,16.17
2023-04-17T02:50:27.629Z,15.67
2023-04-17T02:53:30.294Z,16.07
2023-04-17T02:56:34.307Z,15.57
2023-04-17T02:59:36.988Z,15.77
2023-04-17T03:02:39.881Z,14.87
2023-04-17T03:05:42.907Z,14.83
2023-04-17T03:08:45.564Z,15.50
2023-04-17T03:11:49.840Z,14.47
2023-04-17T03:14:52.918Z,16.07
2023-04-17T03:17:55.657Z,16.07
2023-04-17T03:20:58.404Z,15.50
2023-04-17T03:24:01.490Z,15.47
2023-04-17T03:27:05.830Z,16.67
2023-04-17T03:30:11.009Z,17.03
2023-04-17T03:33:13.674Z,18.30
2023-04-17T03:36:17.921Z,19.30
2023-04-17T03:39:20.696Z,17.77
2023-04-17T03:42:25.668Z,19.30
2023-04-17T03:45:28.461Z,20.43
2023-04-17T03:48:31.500Z,21.27
2023-04-17T03:51:34.118Z,20.00
2023-04-17T03:54:36.759Z,19.23
2023-04-17T03:57:40.764Z,17.83
2023-04-17T04:00:45.447Z,18.13
2023-04-17T04:03:48.363Z,17.47
2023-04-17T04:06:52.743Z,17.73
2023-04-17T04:09:55.815Z,17.07
2023-04-17T04:12:59.856Z,18.33
2023-04-17T04:16:02.531Z,18.67
2023-04-17T04:19:05.368Z,17.77
2023-04-17T04:22:07.993Z,17.70
2023-04-17T04:25:12.257Z,18.03
2023-04-17T04:28:17.702Z,17.63
2023-04-17T04:31:20.614Z,17.50
2023-04-17T04:34:25.520Z,19.30
2023-04-17T04:37:30.021Z,20.67
2023-04-17T04:40:38.072Z,19.60
2023-04-17T04:43:42.234Z,20.87
2023-04-17T04:46:45.042Z,20.50
2023-04-17T04:49:48.169Z,20.97
2023-04-17T04:52:50.814Z,20.63
2023-04-17T04:55:53.478Z,21.50
2023-04-17T04:58:57.479Z,20.50
2023-04-17T05:02:00.243Z,21.77
2023-04-17T05:05:03.094Z,21.90
2023-04-17T05:08:06.236Z,21.07
2023-04-17T05:11:09.101Z,21.80
2023-04-17T05:14:13.123Z,21.53
2023-04-17T05:17:15.805Z,21.63
2023-04-17T05:20:18.742Z,22.00
2023-04-17T05:23:22.989Z,22.27
2023-04-17T05:26:26.239Z,21.77
2023-04-17T05:29:30.355Z,22.67
2023-04-17T05:32:34.864Z,23.83
2023-04-17T05:35:37.616Z,23.70
2023-04-17T05:38:40.373Z,22.93
2023-04-17T05:41:43.082Z,24.23
2023-04-17T05:44:47.106Z,24.33
2023-04-17T05:47:49.789Z,23.13
2023-04-17T05:50:52.584Z,22.50
2023-04-17T05:53:55.393Z,22.63
2023-04-17T05:56:58.095Z,22.57
2023-04-17T06:00:02.130Z,25.17
2023-04-17T06:03:05.972Z,23.10
2023-04-17T06:06:08.958Z,23.13
2023-04-17T06:09:11.954Z,23.63
2023-04-17T06:12:15.789Z,23.87
2023-04-17T06:15:19.823Z,25.00
2023-04-17T06:18:22.466Z,23.60
2023-04-17T06:21:25.731Z,24.80
2023-04-17T06:24:28.404Z,24.47
2023-04-17T06:27:31.050Z,23.50
2023-04-17T06:30:35.181Z,23.30
2023-04-17T06:33:37.856Z,24.37
2023-04-17T06:36:41.080Z,22.30
2023-04-17T06:39:43.724Z,21.73
2023-04-17T06:42:46.362Z,19.27
2023-04-17T06:45:50.449Z,19.17
2023-04-17T06:48:57.729Z,19.17
2023-04-17T06:52:00.663Z,19.67
2023-04-17T06:55:03.363Z,19.13
2023-04-17T06:58:07.679Z,18.90
2023-04-17T07:01:12.060Z,18.30
2023-04-17T07:04:15.065Z,18.37
2023-04-17T07:07:17.884Z,16.03
2023-04-17T07:10:20.992Z,17.13
2023-04-17T07:13:23.666Z,14.07
2023-04-17T07:16:27.747Z,13.77
2023-04-17T07:19:30.478Z,14.77
2023-04-17T07:22:34.208Z,13.17
2023-04-17T07:25:37.702Z,13.90
2023-04-17T07:28:40.412Z,12.57
2023-04-17T07:31:44.453Z,12.17
2023-04-17T07:34:47.497Z,13.60
2023-04-17T07:37:50.595Z,13.47
2023-04-17T07:40:53.228Z,14.03
2023-04-17T07:43:58.455Z,14.67
2023-04-17T07:47:03.100Z,13.63
2023-04-17T07:50:06.648Z,13.47
2023-04-17T07:53:09.296Z,14.47
2023-04-17T07:56:13.058Z,13.07
2023-04-17T07:59:16.337Z,14.93
2023-04-17T08:02:22.133Z,16.03
2023-04-17T08:05:26.292Z,15.90
2023-04-17T08:08:29.078Z,15.40
2023-04-17T08:11:35.697Z,15.90
2023-04-17T08:14:43.674Z,16.07
2023-04-17T08:17:47.780Z,14.80
2023-04-17T08:20:50.522Z,15.63
2023-04-17T08:23:53.214Z,14.80
2023-04-17T08:26:56.389Z,14.97
2023-04-17T08:29:59.040Z,15.73
2023-04-17T08:33:03.224Z,15.27
2023-04-17T08:36:09.598Z,14.40
2023-04-17T08:39:14.560Z,17.30
2023-04-17T08:42:18.943Z,15.30
2023-04-17T08:45:24.152Z,14.23
2023-04-17T08:48:28.356Z,14.70
2023-04-17T08:51:31.473Z,12.27
2023-04-17T08:54:35.175Z,13.17
2023-04-17T08:57:54.453Z,14.00
2023-04-17T09:01:08.743Z,14.10
2023-04-17T09:04:35.528Z,12.80
2023-04-17T09:07:40.644Z,14.10
2023-04-17T09:10:44.885Z,13.50
2023-04-17T09:13:47.601Z,13.47
2023-04-17T09:16:54.960Z,12.13
2023-04-17T09:20:08.964Z,13.57
2023-04-17T09:23:11.768Z,12.80
2023-04-17T09:26:15.847Z,13.40
2023-04-17T09:29:18.613Z,12.20
2023-04-17T09:32:21.263Z,11.53
2023-04-17T09:35:28.197Z,11.90
2023-04-17T09:38:38.697Z,12.60
2023-04-17T09:41:41.648Z,11.73
2023-04-17T09:44:44.996Z,12.47
2023-04-17T09:47:48.801Z,13.47
2023-04-17T09:50:53.273Z,12.10
2023-04-17T09:53:58.850Z,13.23
2023-04-17T09:57:02.621Z,11.37
2023-04-17T10:00:10.621Z,10.27
2023-04-17T10:03:17.372Z,10.43
2023-04-17T10:06:21.803Z,9.73
2023-04-17T10:09:24.855Z,8.50
2023-04-17T10:12:27.690Z,11.20
2023-04-17T10:15:31.483Z,10.83
2023-04-17T10:18:34.201Z,9.93
2023-04-17T10:21:40.947Z,10.90
2023-04-17T10:24:43.691Z,10.83
2023-04-17T10:27:48.743Z,9.10
2023-04-17T10:30:53.952Z,8.63
2023-04-17T10:33:56.695Z,9.20
2023-04-17T10:37:01.401Z,10.40
2023-04-17T10:40:05.680Z,10.17
2023-04-17T10:43:13.062Z,9.20
2023-04-17T10:46:16.057Z,9.90
2023-04-17T10:49:18.893Z,9.80
2023-04-17T10:52:44.663Z,9.57
2023-04-17T10:55:50.344Z,9.87
2023-04-17T10:58:58.552Z,9.07
2023-04-17T11:02:07.593Z,8.43
2023-04-17T11:05:11.867Z,7.30
2023-04-17T11:08:16.515Z,6.27
2023-04-17T11:11:26.962Z,7.20
2023-04-17T11:14:42.991Z,5.73
2023-04-17T11:17:48.934Z,6.77
2023-04-17T11:20:53.445Z,5.80
2023-04-17T11:23:57.472Z,5.70
2023-04-17T11:27:01.988Z,6.13
2023-04-17T11:30:05.452Z,5.67
2023-04-17T11:33:09.483Z,5.60
2023-04-17T11:36:12.260Z,6.33
2023-04-17T11:39:17.128Z,5.73
2023-04-17T11:42:27.630Z,6.13
2023-04-17T11:45:32.392Z,5.83
2023-04-17T11:48:35.966Z,6.60
2023-04-17T11:51:38.636Z,6.70
2023-04-17T11:54:42.658Z,5.93
2023-04-17T11:57:45.613Z,6.37
2023-04-17T12:01:06.150Z,6.60
2023-04-17T12:04:21.705Z,6.80
2023-04-17T12:07:25.564Z,6.67
2023-04-17T12:10:38.883Z,6.20
2023-04-17T12:13:41.534Z,6.47
2023-04-17T12:16:44.197Z,6.43
2023-04-17T12:19:46.873Z,6.27
2023-04-17T12:22:49.599Z,6.23
2023-04-17T12:25:53.663Z,6.50
2023-04-17T12:28:57.681Z,5.63
2023-04-17T12:32:00.429Z,6.30
2023-04-17T12:35:03.122Z,6.80
2023-04-17T12:38:05.848Z,6.70
2023-04-17T12:41:09.904Z,6.60
2023-04-17T12:44:12.811Z,6.73
2023-04-17T12:47:16.521Z,6.20
2023-04-17T12:50:19.413Z,6.70
2023-04-17T12:53:22.046Z,6.17
2023-04-17T12:56:26.071Z,6.33
2023-04-17T12:59:28.752Z,6.43
2023-04-17T13:02:31.518Z,6.60
2023-04-17T13:05:34.483Z,5.57
2023-04-17T13:08:37.132Z,5.90
2023-04-17T13:11:41.223Z,5.17
2023-04-17T13:14:43.886Z,5.60
2023-04-17T13:17:46.630Z,5.60
2023-04-17T13:20:49.285Z,5.20
2023-04-17T13:23:51.944Z,5.17
2023-04-17T13:26:57.564Z,4.40
2023-04-17T13:30:00.233Z,4.60
2023-04-17T13:33:03.044Z,4.87
2023-04-17T13:36:05.876Z,4.40
2023-04-17T13:39:09.454Z,4.43
2023-04-17T13:42:17.392Z,4.37
2023-04-17T13:45:20.098Z,4.13
2023-04-17T13:48:22.769Z,3.90
2023-04-17T13:51:27.193Z,4.30
2023-04-17T13:54:29.907Z,4.43
2023-04-17T13:57:33.986Z,4.23
2023-04-17T14:00:36.639Z,4.07
2023-04-17T14:03:40.718Z,3.70
2023-04-17T14:06:46.989Z,3.47
2023-04-17T14:09:49.830Z,3.90
2023-04-17T14:12:53.824Z,4.13
2023-04-17T14:15:56.844Z,4.20
2023-04-17T14:19:06.428Z,4.53
2023-04-17T14:22:16.266Z,5.27
2023-04-17T14:25:18.883Z,5.40
2023-04-17T14:28:23.687Z,5.27
2023-04-17T14:31:26.373Z,5.50
2023-04-17T14:34:29.480Z,4.60
2023-04-17T14:37:32.137Z,5.93
2023-04-17T14:40:34.841Z,5.60
2023-04-17T14:43:38.825Z,30.40
2023-04-17T14:46:41.506Z,7.90
2023-04-17T14:49:44.178Z,7.30
2023-04-17T14:52:46.825Z,7.30
2023-04-17T14:55:49.737Z,9.50
2023-04-17T14:58:53.764Z,8.50
2023-04-17T15:01:56.475Z,32.27
2023-04-17T15:04:59.285Z,18.60
2023-04-17T15:08:01.937Z,9.83
2023-04-17T15:11:04.574Z,9.37
2023-04-17T15:14:08.620Z,9.60
2023-04-17T15:17:11.255Z,9.53
2023-04-17T15:20:13.978Z,8.33
2023-04-17T15:23:17.562Z,8.77
2023-04-17T15:26:20.220Z,8.70
2023-04-17T15:29:24.243Z,8.53
2023-04-17T15:32:26.976Z,8.80
2023-04-17T15:35:29.665Z,8.07
2023-04-17T15:38:32.298Z,7.70
2023-04-17T15:41:34.969Z,8.10
2023-04-17T15:44:39.124Z,8.17
2023-04-17T15:47:41.789Z,7.73
2023-04-17T15:50:44.887Z,7.77
2023-04-17T15:53:47.781Z,8.17
2023-04-17T15:56:50.488Z,8.63
2023-04-17T15:59:54.471Z,7.90
2023-04-17T16:02:57.238Z,8.30
2023-04-17T16:06:00.000Z,7.80
2023-04-17T16:09:03.405Z,7.97
2023-04-17T16:12:08.631Z,8.23
2023-04-17T16:15:14.360Z,7.43
2023-04-17T16:18:17.029Z,8.03
2023-04-17T16:21:19.655Z,7.47
2023-04-17T16:24:22.273Z,8.48
2023-04-17T16:27:25.066Z,7.57
2023-04-17T16:30:29.047Z,7.83
2023-04-17T16:33:31.786Z,8.23
2023-04-17T16:36:34.385Z,8.03
2023-04-17T16:39:37.069Z,7.27
2023-04-17T16:42:39.995Z,7.40
2023-04-17T16:45:44.045Z,6.30
2023-04-17T16:48:46.775Z,7.00
2023-04-17T16:51:49.590Z,6.37
2023-04-17T16:54:52.235Z,7.40
2023-04-17T16:57:55.585Z,6.73
2023-04-17T17:00:59.639Z,6.30
2023-04-17T17:04:02.427Z,6.47
2023-04-17T17:07:06.015Z,5.87
2023-04-17T17:10:09.818Z,6.50
2023-04-17T17:13:13.409Z,6.30
2023-04-17T17:16:18.453Z,5.73
2023-04-17T17:19:21.728Z,5.50
2023-04-17T17:22:24.517Z,6.70
2023-04-17T17:25:27.433Z,6.10
2023-04-17T17:28:30.447Z,5.90
2023-04-17T17:31:35.219Z,6.80
2023-04-17T17:34:37.931Z,5.90
2023-04-17T17:37:42.168Z,6.13
2023-04-17T17:40:44.806Z,5.67
2023-04-17T17:43:47.457Z,5.00
2023-04-17T17:46:51.456Z,6.00
2023-04-17T17:49:54.084Z,6.13
2023-04-17T17:52:58.681Z,6.83
2023-04-17T17:56:01.680Z,6.10
2023-04-17T17:59:04.393Z,6.53
2023-04-17T18:02:08.462Z,6.53
2023-04-17T18:05:11.353Z,6.47
2023-04-17T18:08:14.124Z,6.40
2023-04-17T18:11:16.830Z,5.93
2023-04-17T18:14:19.474Z,5.80
2023-04-17T18:17:23.524Z,5.30
2023-04-17T18:20:26.180Z,5.90
2023-04-17T18:23:28.824Z,5.47
2023-04-17T18:26:32.296Z,5.30
2023-04-17T18:29:34.936Z,4.93
2023-04-17T18:32:39.037Z,5.60
2023-04-17T18:35:41.686Z,5.30
2023-04-17T18:38:44.376Z,5.20
2023-04-17T18:41:47.187Z,5.53
2023-04-17T18:44:49.860Z,5.60
2023-04-17T18:47:53.949Z,5.00
2023-04-17T18:50:56.657Z,5.07
2023-04-17T18:53:59.273Z,5.87
2023-04-17T18:57:01.996Z,6.23
2023-04-17T19:00:06.128Z,6.53
2023-04-17T19:03:10.358Z,6.47
2023-04-17T19:06:13.271Z,6.90
2023-04-17T19:09:15.922Z,6.23
2023-04-17T19:12:18.554Z,7.10
2023-04-17T19:15:21.387Z,7.20
2023-04-17T19:18:25.384Z,7.37
2023-04-17T19:21:28.202Z,7.53
2023-04-17T19:24:31.903Z,7.40
2023-04-17T19:27:34.526Z,7.07
2023-04-17T19:30:37.275Z,7.57
2023-04-17T19:33:41.311Z,7.60
2023-04-17T19:36:44.493Z,7.37
2023-04-17T19:39:47.160Z,7.87
2023-04-17T19:42:49.813Z,7.70
2023-04-17T19:45:52.477Z,7.67
2023-04-17T19:48:56.585Z,8.00
2023-04-17T19:52:00.827Z,7.27
2023-04-17T19:55:04.465Z,8.97
2023-04-17T19:58:07.114Z,8.70
2023-04-17T20:01:09.900Z,8.67
2023-04-17T20:04:14.095Z,9.60
2023-04-17T20:07:16.835Z,9.17
2023-04-17T20:10:19.525Z,8.87
2023-04-17T20:13:22.334Z,9.03
2023-04-17T20:16:24.997Z,9.40
2023-04-17T20:19:29.737Z,9.87
2023-04-17T20:22:32.334Z,9.50
2023-04-17T20:25:35.036Z,9.67
2023-04-17T20:28:37.706Z,10.00
2023-04-17T20:31:40.437Z,10.10
2023-04-17T20:34:44.475Z,10.90
2023-04-17T20:37:47.183Z,10.00
2023-04-17T20:40:49.819Z,10.23
2023-04-17T20:43:58.864Z,11.03
2023-04-17T20:47:01.549Z,10.20
2023-04-17T20:50:06.578Z,10.53
2023-04-17T20:53:09.237Z,9.53
2023-04-17T20:56:11.954Z,9.97
2023-04-17T20:59:14.674Z,9.83
2023-04-17T21:02:17.449Z,11.00
2023-04-17T21:05:21.620Z,10.33
2023-04-17T21:08:25.112Z,9.57
2023-04-17T21:11:27.729Z,10.83
2023-04-17T21:14:30.441Z,10.37
2023-04-17T21:17:33.110Z,10.07
2023-04-17T21:20:37.102Z,10.07
2023-04-17T21:23:39.828Z,9.80
2023-04-17T21:26:42.433Z,10.20
2023-04-17T21:29:45.148Z,10.13
2023-04-17T21:32:48.551Z,10.07
2023-04-17T21:35:52.657Z,10.27
2023-04-17T21:38:55.365Z,10.40
2023-04-17T21:41:58.354Z,9.87
2023-04-17T21:45:00.992Z,9.70
2023-04-17T21:48:04.040Z,9.37
2023-04-17T21:51:08.370Z,10.13
2023-04-17T21:54:11.218Z,9.63
2023-04-17T21:57:14.074Z,9.63
2023-04-17T22:00:17.571Z,9.43
2023-04-17T22:03:21.826Z,9.80
2023-04-17T22:06:26.369Z,8.70
2023-04-17T22:09:29.258Z,8.47
2023-04-17T22:12:31.916Z,8.90
2023-04-17T22:15:34.572Z,9.73
2023-04-17T22:18:37.210Z,10.30
2023-04-17T22:21:41.228Z,10.27
2023-04-17T22:24:43.945Z,10.33
2023-04-17T22:27:46.557Z,10.40
2023-04-17T22:30:51.781Z,10.70
2023-04-17T22:33:54.562Z,10.87
2023-04-17T22:36:58.770Z,9.80
2023-04-17T22:40:01.478Z,11.80
2023-04-17T22:43:04.192Z,11.10
2023-04-17T22:46:06.937Z,9.90
2023-04-17T22:49:09.611Z,10.37
2023-04-17T22:52:13.623Z,9.77
2023-04-17T22:55:16.422Z,11.10
2023-04-17T22:58:19.110Z,10.10
2023-04-17T23:01:21.794Z,10.07
2023-04-17T23:04:24.847Z,9.63
2023-04-17T23:07:29.123Z,9.90
2023-04-17T23:10:31.799Z,9.87
2023-04-17T23:13:34.560Z,10.00
2023-04-17T23:16:37.469Z,10.47
2023-04-17T23:19:40.160Z,10.43
2023-04-17T23:22:44.218Z,10.30
2023-04-17T23:25:47.003Z,10.50
2023-04-17T23:28:49.657Z,10.17
2023-04-17T23:31:52.336Z,10.13
2023-04-17T23:34:55.026Z,9.67
2023-04-17T23:37:59.018Z,10.50
2023-04-17T23:41:01.676Z,10.97
2023-04-17T23:44:04.757Z,10.97
2023-04-17T23:47:07.439Z,10.67
2023-04-17T23:50:11.127Z,11.63
2023-04-17T23:53:15.253Z,10.87
2023-04-17T23:56:18.016Z,11.53
2023-04-17T23:59:20.667Z,10.80
